sensor_id;sensor_type;location;lat;lon;timestamp;pressure;altitude;pressure_sealevel;temperature;humidity
81835;BME280;71272;52.166;4.498;2024-03-06T00:02:00;101814.94;;;8.19;100.00
81835;BME280;71272;52.166;4.498;2024-03-06T00:04:26;101815.22;;;8.14;100.00
81835;BME280;71272;52.166;4.498;2024-03-06T00:06:51;101812.97;;;8.04;100.00
81835;BME280;71272;52.166;4.498;2024-03-06T00:09:18;101821.75;;;8.02;100.00
81835;BME280;71272;52.166;4.498;2024-03-06T00:11:44;101827.22;;;7.98;100.00
81835;BME280;71272;52.166;4.498;2024-03-06T00:14:09;101829.13;;;7.94;100.00
81835;BME280;71272;52.166;4.498;2024-03-06T00:16:37;101840.84;;;8.00;100.00
81835;BME280;71272;52.166;4.498;2024-03-06T00:19:03;101844.31;;;8.13;100.00
81835;BME280;71272;52.166;4.498;2024-03-06T00:21:28;101848.22;;;8.24;100.00
81835;BME280;71272;52.166;4.498;2024-03-06T00:23:54;101854.50;;;8.37;100.00
81835;BME280;71272;52.166;4.498;2024-03-06T00:26:20;101863.97;;;8.48;100.00
81835;BME280;71272;52.166;4.498;2024-03-06T00:28:46;101866.44;;;8.69;100.00
81835;BME280;71272;52.166;4.498;2024-03-06T00:31:12;101867.03;;;8.78;100.00
81835;BME280;71272;52.166;4.498;2024-03-06T00:33:37;101877.22;;;8.86;100.00
81835;BME280;71272;52.166;4.498;2024-03-06T00:36:03;101865.09;;;8.98;100.00
81835;BME280;71272;52.166;4.498;2024-03-06T00:38:28;101873.19;;;9.03;100.00
81835;BME280;71272;52.166;4.498;2024-03-06T00:40:54;101868.84;;;9.06;100.00
81835;BME280;71272;52.166;4.498;2024-03-06T00:43:19;101862.59;;;9.13;100.00
81835;BME280;71272;52.166;4.498;2024-03-06T00:45:45;101858.69;;;9.17;100.00
81835;BME280;71272;52.166;4.498;2024-03-06T00:48:11;101855.59;;;9.22;100.00
81835;BME280;71272;52.166;4.498;2024-03-06T00:50:36;101864.88;;;9.26;100.00
81835;BME280;71272;52.166;4.498;2024-03-06T00:53:02;101869.28;;;9.27;100.00
81835;BME280;71272;52.166;4.498;2024-03-06T00:55:29;101865.66;;;9.27;100.00
81835;BME280;71272;52.166;4.498;2024-03-06T00:57:54;101871.47;;;9.38;100.00
81835;BME280;71272;52.166;4.498;2024-03-06T01:00:20;101868.91;;;9.29;100.00
81835;BME280;71272;52.166;4.498;2024-03-06T01:02:47;101877.09;;;9.38;100.00
81835;BME280;71272;52.166;4.498;2024-03-06T01:05:12;101876.63;;;9.36;100.00
81835;BME280;71272;52.166;4.498;2024-03-06T01:07:38;101883.81;;;9.33;100.00
81835;BME280;71272;52.166;4.498;2024-03-06T01:10:05;101876.63;;;9.36;100.00
81835;BME280;71272;52.166;4.498;2024-03-06T01:12:32;101876.63;;;9.36;100.00
81835;BME280;71272;52.166;4.498;2024-03-06T01:14:57;101875.53;;;9.40;100.00
81835;BME280;71272;52.166;4.498;2024-03-06T01:17:22;101876.03;;;9.46;100.00
81835;BME280;71272;52.166;4.498;2024-03-06T01:19:47;101885.56;;;9.41;100.00
81835;BME280;71272;52.166;4.498;2024-03-06T01:22:13;101885.63;;;9.45;100.00
81835;BME280;71272;52.166;4.498;2024-03-06T01:24:38;101886.09;;;9.47;100.00
81835;BME280;71272;52.166;4.498;2024-03-06T01:27:04;101890.13;;;9.49;100.00
81835;BME280;71272;52.166;4.498;2024-03-06T01:29:29;101894.91;;;9.49;100.00
81835;BME280;71272;52.166;4.498;2024-03-06T01:31:55;101894.16;;;9.52;100.00
81835;BME280;71272;52.166;4.498;2024-03-06T01:34:20;101897.69;;;9.49;100.00
81835;BME280;71272;52.166;4.498;2024-03-06T01:36:46;101898.97;;;9.51;100.00
81835;BME280;71272;52.166;4.498;2024-03-06T01:39:11;101897.41;;;9.54;100.00
81835;BME280;71272;52.166;4.498;2024-03-06T01:41:37;101903.47;;;9.56;100.00
81835;BME280;71272;52.166;4.498;2024-03-06T01:44:02;101891.44;;;9.55;100.00
81835;BME280;71272;52.166;4.498;2024-03-06T01:46:29;101905.38;;;9.52;100.00
81835;BME280;71272;52.166;4.498;2024-03-06T01:48:54;101896.59;;;9.53;100.00
81835;BME280;71272;52.166;4.498;2024-03-06T01:51:20;101892.94;;;9.49;100.00
81835;BME280;71272;52.166;4.498;2024-03-06T01:53:45;101902.19;;;9.53;100.00
81835;BME280;71272;52.166;4.498;2024-03-06T01:56:11;101899.69;;;9.48;100.00
81835;BME280;71272;52.166;4.498;2024-03-06T01:58:42;101898.38;;;9.42;100.00
81835;BME280;71272;52.166;4.498;2024-03-06T02:01:11;101900.50;;;9.49;100.00
81835;BME280;71272;52.166;4.498;2024-03-06T02:03:36;101899.84;;;9.55;100.00
81835;BME280;71272;52.166;4.498;2024-03-06T02:06:02;101897.41;;;9.54;100.00
81835;BME280;71272;52.166;4.498;2024-03-06T02:08:28;101902.25;;;9.57;100.00
81835;BME280;71272;52.166;4.498;2024-03-06T02:10:54;101905.16;;;9.61;100.00
81835;BME280;71272;52.166;4.498;2024-03-06T02:13:20;101909.50;;;9.58;100.00
81835;BME280;71272;52.166;4.498;2024-03-06T02:15:46;101915.53;;;9.60;100.00
81835;BME280;71272;52.166;4.498;2024-03-06T02:18:11;101916.34;;;9.61;100.00
81835;BME280;71272;52.166;4.498;2024-03-06T02:20:40;101915.53;;;9.60;100.00
81835;BME280;71272;52.166;4.498;2024-03-06T02:23:06;101910.31;;;9.59;100.00
81835;BME280;71272;52.166;4.498;2024-03-06T02:25:31;101908.16;;;9.52;100.00
81835;BME280;71272;52.166;4.498;2024-03-06T02:27:56;101909.41;;;9.54;100.00
81835;BME280;71272;52.166;4.498;2024-03-06T02:30:22;101916.56;;;9.52;100.00
81835;BME280;71272;52.166;4.498;2024-03-06T02:32:47;101914.75;;;9.40;100.00
81835;BME280;71272;52.166;4.498;2024-03-06T02:35:12;101915.03;;;9.35;100.00
81835;BME280;71272;52.166;4.498;2024-03-06T02:37:38;101914.91;;;9.28;100.00
81835;BME280;71272;52.166;4.498;2024-03-06T02:40:06;101920.63;;;9.35;100.00
81835;BME280;71272;52.166;4.498;2024-03-06T02:42:32;101920.13;;;9.29;100.00
81835;BME280;71272;52.166;4.498;2024-03-06T02:44:57;101917.41;;;9.33;100.00
81835;BME280;71272;52.166;4.498;2024-03-06T02:47:23;101906.06;;;9.26;100.00
81835;BME280;71272;52.166;4.498;2024-03-06T02:49:48;101909.59;;;9.23;100.00
81835;BME280;71272;52.166;4.498;2024-03-06T02:52:13;101910.16;;;9.13;100.00
81835;BME280;71272;52.166;4.498;2024-03-06T02:54:41;101906.84;;;9.07;100.00
81835;BME280;71272;52.166;4.498;2024-03-06T02:57:06;101910.38;;;9.04;100.00
81835;BME280;71272;52.166;4.498;2024-03-06T02:59:32;101910.97;;;8.94;100.00
81835;BME280;71272;52.166;4.498;2024-03-06T03:01:57;101913.53;;;9.02;100.00
81835;BME280;71272;52.166;4.498;2024-03-06T03:04:23;101918.63;;;8.97;100.00
81835;BME280;71272;52.166;4.498;2024-03-06T03:06:48;101915.09;;;9.00;100.00
81835;BME280;71272;52.166;4.498;2024-03-06T03:09:13;101918.53;;;8.93;100.00
81835;BME280;71272;52.166;4.498;2024-03-06T03:11:39;101913.75;;;8.94;100.00
81835;BME280;71272;52.166;4.498;2024-03-06T03:14:04;101913.59;;;8.86;100.00
81835;BME280;71272;52.166;4.498;2024-03-06T03:16:29;101914.19;;;8.76;100.00
81835;BME280;71272;52.166;4.498;2024-03-06T03:18:55;101919.78;;;8.76;100.00
81835;BME280;71272;52.166;4.498;2024-03-06T03:21:20;101921.44;;;8.81;100.00
81835;BME280;71272;52.166;4.498;2024-03-06T03:23:46;101917.22;;;8.87;100.00
81835;BME280;71272;52.166;4.498;2024-03-06T03:26:12;101928.66;;;8.98;100.00
81835;BME280;71272;52.166;4.498;2024-03-06T03:28:38;101918.56;;;9.13;100.00
81835;BME280;71272;52.166;4.498;2024-03-06T03:31:05;101930.94;;;9.11;100.00
81835;BME280;71272;52.166;4.498;2024-03-06T03:33:31;101923.38;;;9.12;100.00
81835;BME280;71272;52.166;4.498;2024-03-06T03:35:56;101922.03;;;9.25;100.00
81835;BME280;71272;52.166;4.498;2024-03-06T03:38:21;101919.09;;;9.38;100.00
81835;BME280;71272;52.166;4.498;2024-03-06T03:40:47;101919.53;;;9.40;100.00
81835;BME280;71272;52.166;4.498;2024-03-06T03:43:12;101929.53;;;9.41;100.00
81835;BME280;71272;52.166;4.498;2024-03-06T03:45:37;101930.16;;;9.50;100.00
81835;BME280;71272;52.166;4.498;2024-03-06T03:48:04;101925.59;;;9.42;100.00
81835;BME280;71272;52.166;4.498;2024-03-06T03:50:29;101931.19;;;9.42;100.00
81835;BME280;71272;52.166;4.498;2024-03-06T03:52:55;101939.66;;;9.45;100.00
81835;BME280;71272;52.166;4.498;2024-03-06T03:55:24;101936.84;;;9.45;100.00
81835;BME280;71272;52.166;4.498;2024-03-06T03:57:49;101934.56;;;9.51;100.00
81835;BME280;71272;52.166;4.498;2024-03-06T04:00:15;101942.59;;;9.52;100.00
81835;BME280;71272;52.166;4.498;2024-03-06T04:02:41;101930.28;;;9.57;100.00
81835;BME280;71272;52.166;4.498;2024-03-06T04:05:07;101932.72;;;9.59;100.00
81835;BME280;71272;52.166;4.498;2024-03-06T04:07:33;101939.13;;;9.59;100.00
81835;BME280;71272;52.166;4.498;2024-03-06T04:09:58;101943.13;;;9.58;100.00
81835;BME280;71272;52.166;4.498;2024-03-06T04:12:24;101943.91;;;9.59;100.00
81835;BME280;71272;52.166;4.498;2024-03-06T04:14:49;101937.88;;;9.56;100.00
81835;BME280;71272;52.166;4.498;2024-03-06T04:17:14;101944.56;;;9.52;100.00
81835;BME280;71272;52.166;4.498;2024-03-06T04:19:40;101936.31;;;9.59;100.00
81835;BME280;71272;52.166;4.498;2024-03-06T04:22:05;101950.03;;;9.64;100.00
81835;BME280;71272;52.166;4.498;2024-03-06T04:24:30;101953.94;;;9.60;100.00
81835;BME280;71272;52.166;4.498;2024-03-06T04:26:56;101954.38;;;9.62;100.00
81835;BME280;71272;52.166;4.498;2024-03-06T04:29:21;101952.38;;;9.62;100.00
81835;BME280;71272;52.166;4.498;2024-03-06T04:31:46;101948.28;;;9.56;100.00
81835;BME280;71272;52.166;4.498;2024-03-06T04:34:12;101953.19;;;9.63;100.00
81835;BME280;71272;52.166;4.498;2024-03-06T04:36:37;101960.28;;;9.56;100.00
81835;BME280;71272;52.166;4.498;2024-03-06T04:39:02;101965.94;;;9.60;100.00
81835;BME280;71272;52.166;4.498;2024-03-06T04:41:33;101964.34;;;9.59;100.00
81835;BME280;71272;52.166;4.498;2024-03-06T04:43:58;101961.09;;;9.57;100.00
81835;BME280;71272;52.166;4.498;2024-03-06T04:46:26;101964.41;;;9.63;100.00
81835;BME280;71272;52.166;4.498;2024-03-06T04:48:51;101966.34;;;9.59;100.00
81835;BME280;71272;52.166;4.498;2024-03-06T04:51:16;101967.81;;;9.52;100.00
81835;BME280;71272;52.166;4.498;2024-03-06T04:53:44;101969.44;;;9.53;100.00
81835;BME280;71272;52.166;4.498;2024-03-06T04:56:10;101969.19;;;9.43;100.00
81835;BME280;71272;52.166;4.498;2024-03-06T04:58:35;101976.13;;;9.49;100.00
81835;BME280;71272;52.166;4.498;2024-03-06T05:01:01;101983.59;;;9.41;100.00
81835;BME280;71272;52.166;4.498;2024-03-06T05:03:26;101983.66;;;9.45;100.00
81835;BME280;71272;52.166;4.498;2024-03-06T05:05:51;101978.78;;;9.42;100.00
81835;BME280;71272;52.166;4.498;2024-03-06T05:08:16;101985.94;;;9.39;100.00
81835;BME280;71272;52.166;4.498;2024-03-06T05:10:42;101987.47;;;9.37;100.00
81835;BME280;71272;52.166;4.498;2024-03-06T05:13:07;101984.50;;;9.29;100.00
81835;BME280;71272;52.166;4.498;2024-03-06T05:15:32;101991.94;;;9.22;100.00
81835;BME280;71272;52.166;4.498;2024-03-06T05:17:58;101992.25;;;9.17;100.00
81835;BME280;71272;52.166;4.498;2024-03-06T05:20:23;101988.19;;;9.14;100.00
81835;BME280;71272;52.166;4.498;2024-03-06T05:22:49;101987.00;;;9.15;100.00
81835;BME280;71272;52.166;4.498;2024-03-06T05:25:14;101998.94;;;9.12;100.00
81835;BME280;71272;52.166;4.498;2024-03-06T05:27:39;101997.06;;;9.00;100.00
81835;BME280;71272;52.166;4.498;2024-03-06T05:30:05;101987.25;;;8.91;100.00
81835;BME280;71272;52.166;4.498;2024-03-06T05:32:31;101998.63;;;8.82;100.00
81835;BME280;71272;52.166;4.498;2024-03-06T05:34:56;102003.06;;;8.67;100.00
81835;BME280;71272;52.166;4.498;2024-03-06T05:37:23;102001.97;;;8.56;100.00
81835;BME280;71272;52.166;4.498;2024-03-06T05:39:48;101998.38;;;8.39;100.00
81835;BME280;71272;52.166;4.498;2024-03-06T05:42:13;102006.88;;;8.15;100.00
81835;BME280;71272;52.166;4.498;2024-03-06T05:44:39;101999.88;;;7.93;100.00
81835;BME280;71272;52.166;4.498;2024-03-06T05:47:04;102005.25;;;7.70;100.00
81835;BME280;71272;52.166;4.498;2024-03-06T05:49:31;102008.53;;;7.60;100.00
81835;BME280;71272;52.166;4.498;2024-03-06T05:51:57;102015.53;;;7.53;100.00
81835;BME280;71272;52.166;4.498;2024-03-06T05:54:23;102029.53;;;7.41;100.00
81835;BME280;71272;52.166;4.498;2024-03-06T05:56:49;102024.91;;;7.21;100.00
81835;BME280;71272;52.166;4.498;2024-03-06T05:59:16;102029.09;;;7.15;100.00
81835;BME280;71272;52.166;4.498;2024-03-06T06:01:42;102033.75;;;7.10;100.00
81835;BME280;71272;52.166;4.498;2024-03-06T06:04:13;102035.75;;;6.98;100.00
81835;BME280;71272;52.166;4.498;2024-03-06T06:06:39;102033.53;;;6.91;100.00
81835;BME280;71272;52.166;4.498;2024-03-06T06:09:05;102045.41;;;6.88;100.00
81835;BME280;71272;52.166;4.498;2024-03-06T06:11:30;102043.66;;;6.83;100.00
81835;BME280;71272;52.166;4.498;2024-03-06T06:13:56;102048.41;;;6.83;100.00
81835;BME280;71272;52.166;4.498;2024-03-06T06:16:21;102055.63;;;6.96;100.00
81835;BME280;71272;52.166;4.498;2024-03-06T06:18:47;102051.09;;;6.92;100.00
81835;BME280;71272;52.166;4.498;2024-03-06T06:21:12;102063.06;;;6.92;100.00
81835;BME280;71272;52.166;4.498;2024-03-06T06:23:37;102062.25;;;6.92;100.00
81835;BME280;71272;52.166;4.498;2024-03-06T06:26:03;102071.22;;;6.85;100.00
81835;BME280;71272;52.166;4.498;2024-03-06T06:28:28;102069.69;;;6.87;100.00
81835;BME280;71272;52.166;4.498;2024-03-06T06:30:53;102075.59;;;6.98;100.00
81835;BME280;71272;52.166;4.498;2024-03-06T06:33:19;102076.53;;;7.15;100.00
81835;BME280;71272;52.166;4.498;2024-03-06T06:35:46;102079.78;;;7.29;100.00
81835;BME280;71272;52.166;4.498;2024-03-06T06:38:11;102085.13;;;7.46;100.00
81835;BME280;71272;52.166;4.498;2024-03-06T06:40:36;102100.19;;;7.70;100.00
81835;BME280;71272;52.166;4.498;2024-03-06T06:43:02;102097.97;;;7.75;100.00
81835;BME280;71272;52.166;4.498;2024-03-06T06:45:39;102105.09;;;8.01;100.00
81835;BME280;71272;52.166;4.498;2024-03-06T06:56:16;102121.69;;;8.50;100.00
81835;BME280;71272;52.166;4.498;2024-03-06T07:04:29;102131.81;;;8.86;100.00
81835;BME280;71272;52.166;4.498;2024-03-06T07:06:55;102130.31;;;9.05;100.00
81835;BME280;71272;52.166;4.498;2024-03-06T07:09:20;102137.09;;;9.04;100.00
81835;BME280;71272;52.166;4.498;2024-03-06T07:11:45;102134.09;;;9.13;100.00
81835;BME280;71272;52.166;4.498;2024-03-06T07:14:14;102142.69;;;9.20;100.00
81835;BME280;71272;52.166;4.498;2024-03-06T07:16:43;102138.78;;;9.24;100.00
81835;BME280;71272;52.166;4.498;2024-03-06T07:19:09;102150.91;;;9.28;100.00
81835;BME280;71272;52.166;4.498;2024-03-06T07:21:34;102144.75;;;9.39;100.00
81835;BME280;71272;52.166;4.498;2024-03-06T07:23:59;102141.22;;;9.42;100.00
81835;BME280;71272;52.166;4.498;2024-03-06T07:26:25;102150.03;;;9.44;100.00
81835;BME280;71272;52.166;4.498;2024-03-06T07:28:51;102150.41;;;9.42;100.00
81835;BME280;71272;52.166;4.498;2024-03-06T07:31:17;102144.81;;;9.42;100.00
81835;BME280;71272;52.166;4.498;2024-03-06T07:33:43;102160.97;;;9.49;100.00
81835;BME280;71272;52.166;4.498;2024-03-06T07:36:09;102163.16;;;9.55;100.00
81835;BME280;71272;52.166;4.498;2024-03-06T07:38:34;102175.69;;;9.62;100.00
81835;BME280;71272;52.166;4.498;2024-03-06T07:40:59;102172.94;;;9.81;100.00
81835;BME280;71272;52.166;4.498;2024-03-06T07:43:24;102173.09;;;9.88;100.00
81835;BME280;71272;52.166;4.498;2024-03-06T07:45:50;102171.88;;;10.05;100.00
81835;BME280;71272;52.166;4.498;2024-03-06T07:48:15;102189.00;;;10.19;100.00
81835;BME280;71272;52.166;4.498;2024-03-06T07:50:40;102193.72;;;10.15;100.00
81835;BME280;71272;52.166;4.498;2024-03-06T07:53:06;102196.75;;;10.26;100.00
81835;BME280;71272;52.166;4.498;2024-03-06T07:55:32;102194.75;;;10.27;100.00
81835;BME280;71272;52.166;4.498;2024-03-06T07:57:57;102198.84;;;10.49;100.00
81835;BME280;71272;52.166;4.498;2024-03-06T08:00:23;102196.78;;;10.46;100.00
81835;BME280;71272;52.166;4.498;2024-03-06T08:02:48;102201.81;;;10.56;100.00
81835;BME280;71272;52.166;4.498;2024-03-06T08:05:16;102213.22;;;10.66;100.00
81835;BME280;71272;52.166;4.498;2024-03-06T08:07:41;102210.22;;;10.75;100.00
81835;BME280;71272;52.166;4.498;2024-03-06T08:10:11;102209.47;;;10.78;100.00
81835;BME280;71272;52.166;4.498;2024-03-06T08:12:42;102209.91;;;10.80;100.00
81835;BME280;71272;52.166;4.498;2024-03-06T08:15:10;102213.38;;;10.74;100.00
81835;BME280;71272;52.166;4.498;2024-03-06T08:17:41;102215.19;;;10.85;100.00
81835;BME280;71272;52.166;4.498;2024-03-06T08:20:08;102215.19;;;10.85;100.00
81835;BME280;71272;52.166;4.498;2024-03-06T08:22:35;102220.72;;;11.01;100.00
81835;BME280;71272;52.166;4.498;2024-03-06T08:25:12;102227.78;;;11.15;100.00
81835;BME280;71272;52.166;4.498;2024-03-06T08:27:41;102233.53;;;11.22;100.00
81835;BME280;71272;52.166;4.498;2024-03-06T08:30:08;102234.59;;;11.14;100.00
81835;BME280;71272;52.166;4.498;2024-03-06T08:32:34;102232.72;;;11.21;100.00
81835;BME280;71272;52.166;4.498;2024-03-06T08:35:08;102240.47;;;11.28;100.00
81835;BME280;71272;52.166;4.498;2024-03-06T08:37:37;102235.16;;;11.46;100.00
81835;BME280;71272;52.166;4.498;2024-03-06T08:40:03;102240.94;;;11.56;100.00
81835;BME280;71272;52.166;4.498;2024-03-06T08:42:29;102241.06;;;11.64;100.00
81835;BME280;71272;52.166;4.498;2024-03-06T08:44:54;102246.13;;;11.54;100.00
81835;BME280;71272;52.166;4.498;2024-03-06T08:47:19;102247.22;;;11.46;100.00
81835;BME280;71272;52.166;4.498;2024-03-06T08:49:45;102246.44;;;11.49;100.00
81835;BME280;71272;52.166;4.498;2024-03-06T08:52:11;102249.38;;;11.56;100.00
81835;BME280;71272;52.166;4.498;2024-03-06T08:54:36;102251.50;;;11.40;100.00
81835;BME280;71272;52.166;4.498;2024-03-06T08:57:03;102255.31;;;11.28;100.00
81835;BME280;71272;52.166;4.498;2024-03-06T08:59:29;102254.63;;;11.35;100.00
81835;BME280;71272;52.166;4.498;2024-03-06T09:01:54;102253.19;;;11.45;100.00
81835;BME280;71272;52.166;4.498;2024-03-06T09:04:21;102254.25;;;11.60;100.00
81835;BME280;71272;52.166;4.498;2024-03-06T09:06:46;102262.34;;;11.65;100.00
81835;BME280;71272;52.166;4.498;2024-03-06T09:09:12;102255.91;;;11.64;100.00
81835;BME280;71272;52.166;4.498;2024-03-06T09:11:40;102254.13;;;11.52;100.00
81835;BME280;71272;52.166;4.498;2024-03-06T09:14:05;102260.44;;;11.46;100.00
81835;BME280;71272;52.166;4.498;2024-03-06T09:16:31;102259.13;;;11.40;100.00
81835;BME280;71272;52.166;4.498;2024-03-06T09:18:56;102267.25;;;11.22;100.00
81835;BME280;71272;52.166;4.498;2024-03-06T09:21:21;102263.72;;;11.05;100.00
81835;BME280;71272;52.166;4.498;2024-03-06T09:23:47;102273.19;;;10.97;100.00
81835;BME280;71272;52.166;4.498;2024-03-06T09:26:16;102271.13;;;10.94;100.00
81835;BME280;71272;52.166;4.498;2024-03-06T09:28:41;102276.50;;;11.03;100.00
81835;BME280;71272;52.166;4.498;2024-03-06T09:31:07;102282.94;;;11.03;100.00
81835;BME280;71272;52.166;4.498;2024-03-06T09:33:32;102288.03;;;10.98;100.00
81835;BME280;71272;52.166;4.498;2024-03-06T09:35:58;102288.41;;;10.96;100.00
81835;BME280;71272;52.166;4.498;2024-03-06T09:38:24;102298.59;;;11.04;100.00
81835;BME280;71272;52.166;4.498;2024-03-06T09:40:49;102284.53;;;11.04;100.00
81835;BME280;71272;52.166;4.498;2024-03-06T09:43:16;102287.84;;;11.10;100.00
81835;BME280;71272;52.166;4.498;2024-03-06T09:45:45;102292.28;;;11.30;100.00
81835;BME280;71272;52.166;4.498;2024-03-06T09:48:13;102298.19;;;11.25;100.00
81835;BME280;71272;52.166;4.498;2024-03-06T09:50:42;102293.75;;;11.24;100.00
81835;BME280;71272;52.166;4.498;2024-03-06T09:53:11;102294.44;;;11.18;100.00
81835;BME280;71272;52.166;4.498;2024-03-06T09:55:40;102301.56;;;11.34;100.00
81835;BME280;71272;52.166;4.498;2024-03-06T09:58:06;102304.44;;;11.38;100.00
81835;BME280;71272;52.166;4.498;2024-03-06T10:00:33;102308.06;;;11.39;100.00
81835;BME280;71272;52.166;4.498;2024-03-06T10:03:02;102307.69;;;11.40;100.00
81835;BME280;71272;52.166;4.498;2024-03-06T10:05:30;102310.06;;;11.38;100.00
81835;BME280;71272;52.166;4.498;2024-03-06T10:08:00;102311.56;;;11.55;100.00
81835;BME280;71272;52.166;4.498;2024-03-06T10:10:25;102308.06;;;11.62;100.00
81835;BME280;71272;52.166;4.498;2024-03-06T10:12:52;102314.00;;;11.80;100.00
81835;BME280;71272;52.166;4.498;2024-03-06T10:15:17;102317.25;;;11.82;100.00
81835;BME280;71272;52.166;4.498;2024-03-06T10:17:43;102317.47;;;11.92;100.00
81835;BME280;71272;52.166;4.498;2024-03-06T10:20:23;102319.53;;;11.95;100.00
81835;BME280;71272;52.166;4.498;2024-03-06T10:22:53;102322.03;;;12.01;100.00
81835;BME280;71272;52.166;4.498;2024-03-06T10:25:22;102324.28;;;12.18;100.00
81835;BME280;71272;52.166;4.498;2024-03-06T10:28:10;102325.41;;;12.40;100.00
81835;BME280;71272;52.166;4.498;2024-03-06T10:30:41;102321.81;;;12.39;100.00
81835;BME280;71272;52.166;4.498;2024-03-06T10:33:11;102325.78;;;12.38;100.00
81835;BME280;71272;52.166;4.498;2024-03-06T10:35:40;102322.72;;;12.47;100.00
81835;BME280;71272;52.166;4.498;2024-03-06T10:38:06;102322.91;;;12.61;100.00
81835;BME280;71272;52.166;4.498;2024-03-06T10:40:34;102327.78;;;12.64;100.00
81835;BME280;71272;52.166;4.498;2024-03-06T10:43:00;102318.66;;;12.75;100.00
81835;BME280;71272;52.166;4.498;2024-03-06T10:45:46;102323.72;;;12.96;100.00
81835;BME280;71272;52.166;4.498;2024-03-06T10:48:17;102326.53;;;12.92;100.00
81835;BME280;71272;52.166;4.498;2024-03-06T10:50:43;102329.03;;;13.01;100.00
81835;BME280;71272;52.166;4.498;2024-03-06T10:53:11;102332.50;;;13.21;100.00
81835;BME280;71272;52.166;4.498;2024-03-06T10:55:38;102336.81;;;13.11;100.00
81835;BME280;71272;52.166;4.498;2024-03-06T10:58:07;102335.66;;;13.16;100.00
81835;BME280;71272;52.166;4.498;2024-03-06T11:00:46;102339.81;;;13.66;100.00
81835;BME280;71272;52.166;4.498;2024-03-06T11:03:15;102335.34;;;14.06;100.00
81835;BME280;71272;52.166;4.498;2024-03-06T11:05:42;102341.16;;;14.28;100.00
81835;BME280;71272;52.166;4.498;2024-03-06T11:08:09;102339.00;;;14.65;100.00
81835;BME280;71272;52.166;4.498;2024-03-06T11:10:37;102337.19;;;15.13;100.00
81835;BME280;71272;52.166;4.498;2024-03-06T11:13:25;102347.28;;;15.24;100.00
81835;BME280;71272;52.166;4.498;2024-03-06T11:15:51;102350.47;;;15.08;100.00
81835;BME280;71272;52.166;4.498;2024-03-06T11:18:40;102355.69;;;15.03;100.00
81835;BME280;71272;52.166;4.498;2024-03-06T11:23:34;102354.56;;;15.22;100.00
81835;BME280;71272;52.166;4.498;2024-03-06T11:26:07;102349.72;;;15.29;100.00
81835;BME280;71272;52.166;4.498;2024-03-06T11:28:36;102357.03;;;15.34;100.00
81835;BME280;71272;52.166;4.498;2024-03-06T11:31:07;102356.25;;;15.48;100.00
81835;BME280;71272;52.166;4.498;2024-03-06T11:33:45;102357.94;;;16.06;100.00
81835;BME280;71272;52.166;4.498;2024-03-06T11:36:20;102366.44;;;16.06;100.00
81835;BME280;71272;52.166;4.498;2024-03-06T11:41:31;102365.06;;;17.74;100.00
81835;BME280;71272;52.166;4.498;2024-03-06T11:44:00;102358.63;;;19.86;100.00
81835;BME280;71272;52.166;4.498;2024-03-06T11:46:41;102374.13;;;22.05;100.00
81835;BME280;71272;52.166;4.498;2024-03-06T11:49:21;102375.09;;;23.99;78.26
81835;BME280;71272;52.166;4.498;2024-03-06T11:51:47;102383.84;;;25.21;60.07
81835;BME280;71272;52.166;4.498;2024-03-06T11:54:14;102372.78;;;26.87;50.54
81835;BME280;71272;52.166;4.498;2024-03-06T11:56:40;102374.00;;;26.22;47.22
81835;BME280;71272;52.166;4.498;2024-03-06T11:59:05;102372.72;;;26.04;49.39
81835;BME280;71272;52.166;4.498;2024-03-06T12:01:33;102369.53;;;24.65;51.47
81835;BME280;71272;52.166;4.498;2024-03-06T12:03:58;102368.28;;;23.29;59.45
81835;BME280;71272;52.166;4.498;2024-03-06T12:06:23;102374.47;;;25.30;55.18
81835;BME280;71272;52.166;4.498;2024-03-06T12:08:49;102371.06;;;26.53;43.14
81835;BME280;71272;52.166;4.498;2024-03-06T12:11:14;102371.06;;;27.51;42.43
81835;BME280;71272;52.166;4.498;2024-03-06T12:13:44;102380.22;;;28.16;39.28
81835;BME280;71272;52.166;4.498;2024-03-06T12:16:10;102365.19;;;25.98;43.22
81835;BME280;71272;52.166;4.498;2024-03-06T12:18:36;102365.72;;;26.97;43.29
81835;BME280;71272;52.166;4.498;2024-03-06T12:21:02;102373.91;;;29.34;37.92
81835;BME280;71272;52.166;4.498;2024-03-06T12:23:28;102377.94;;;30.07;32.22
81835;BME280;71272;52.166;4.498;2024-03-06T12:26:06;102378.66;;;31.10;32.02
81835;BME280;71272;52.166;4.498;2024-03-06T12:28:34;102375.44;;;32.57;30.67
81835;BME280;71272;52.166;4.498;2024-03-06T12:31:01;102375.84;;;33.72;27.69
81835;BME280;71272;52.166;4.498;2024-03-06T12:33:27;102364.63;;;32.52;27.25
81835;BME280;71272;52.166;4.498;2024-03-06T12:36:07;102383.50;;;33.86;24.01
81835;BME280;71272;52.166;4.498;2024-03-06T12:38:36;102382.56;;;31.65;26.18
81835;BME280;71272;52.166;4.498;2024-03-06T12:41:01;102372.22;;;31.26;26.50
81835;BME280;71272;52.166;4.498;2024-03-06T12:43:26;102382.44;;;32.22;27.21
81835;BME280;71272;52.166;4.498;2024-03-06T12:45:53;102381.81;;;32.61;25.90
81835;BME280;71272;52.166;4.498;2024-03-06T12:48:20;102379.28;;;33.42;25.98
81835;BME280;71272;52.166;4.498;2024-03-06T12:50:45;102375.84;;;33.72;25.90
81835;BME280;71272;52.166;4.498;2024-03-06T12:53:16;102373.94;;;34.02;25.33
81835;BME280;71272;52.166;4.498;2024-03-06T12:55:41;102384.88;;;34.55;24.72
81835;BME280;71272;52.166;4.498;2024-03-06T12:58:10;102388.84;;;34.63;23.08
81835;BME280;71272;52.166;4.498;2024-03-06T13:00:36;102372.06;;;32.70;22.66
81835;BME280;71272;52.166;4.498;2024-03-06T13:03:01;102370.59;;;33.65;24.91
81835;BME280;71272;52.166;4.498;2024-03-06T13:05:26;102373.03;;;34.41;23.80